Terminal Aerodrome Forecast
Issued by NWS

Home | Current Version | Previous Version | Text Only | Print | Product List | Glossary On
Versions: 1 2 3 4 5 6 7 8 9 10 11 12 13 14
919
FTUS44 KLZK 261724
TAFLLQ
TAF
KLLQ 261724Z 2618/2718 02012KT P6SM SCT015 OVC050
     FM262100 03008KT P6SM BKN050
     FM270200 02005KT P6SM SCT050 BKN100
     FM271500 03005KT P6SM SKC=

USA.gov is the U.S. government's official web portal to all federal, state and local government web resources and services.